Terminal Aerodrome Forecast
Issued by NWS Mt. Holly, NJ

Home | Current Version | Previous Version | Text Only | Print | Product List | Glossary On
Versions: 1 2 3 4 5 6 7 8 9 10 11 12 13 14 15 16 17 18 19 20 21 22 23 24 25 26 27 28 29 30 31 32 33 34 35 36 37 38 39 40 41 42 43 44 45 46 47 48 49 50
832
FTAK31 PANC 241735
TAFABE
TAF
PABE 241735Z 2418/2518 19015KT 6SM BR OVC005
      TEMPO 2418/2421 2SM BR OVC003
     FM242100 20015KT P6SM OVC005
     FM250800 18012KT P6SM VCSH SCT005 BKN015
     FM251400 17016KT 6SM -SN BKN005 OVC015=

USA.gov is the U.S. government's official web portal to all federal, state and local government web resources and services.